createdAt,value
2019-05-21T00:02:03.984Z,29.50
2019-05-21T00:04:35.226Z,29.70
2019-05-21T00:07:06.355Z,29.90
2019-05-21T00:09:37.850Z,30.00
2019-05-21T00:12:10.116Z,30.30
2019-05-21T00:14:40.250Z,30.50
2019-05-21T00:17:11.261Z,30.70
2019-05-21T00:19:42.409Z,30.90
2019-05-21T00:22:13.316Z,31.10
2019-05-21T00:24:44.713Z,31.30
2019-05-21T00:27:15.893Z,31.50
2019-05-21T00:30:22.832Z,31.60
2019-05-21T00:33:29.316Z,31.80
2019-05-21T00:36:37.085Z,32.10
2019-05-21T00:39:44.634Z,32.30
2019-05-21T00:42:22.036Z,32.40
2019-05-21T00:44:55.711Z,32.70
2019-05-21T00:47:27.032Z,32.90
2019-05-21T00:49:59.725Z,33.00
2019-05-21T00:52:31.239Z,33.20
2019-05-21T00:55:02.529Z,33.30
2019-05-21T00:57:33.443Z,33.50
2019-05-21T01:00:04.607Z,33.70
2019-05-21T01:02:36.783Z,33.90
2019-05-21T01:05:07.178Z,34.10
2019-05-21T01:07:40.261Z,34.30
2019-05-21T01:10:13.397Z,34.50
2019-05-21T01:12:42.790Z,34.60
2019-05-21T01:15:24.191Z,34.80
2019-05-21T01:17:54.919Z,34.90
2019-05-21T01:20:20.922Z,34.90
2019-05-21T01:23:00.431Z,35.00
2019-05-21T01:25:28.025Z,35.10
2019-05-21T01:28:08.215Z,35.10
2019-05-21T01:30:31.906Z,35.20
2019-05-21T01:33:02.669Z,35.10
2019-05-21T01:35:33.811Z,35.10
2019-05-21T01:38:08.931Z,35.10
2019-05-21T01:40:45.235Z,35.10
2019-05-21T01:43:16.177Z,35.10
2019-05-21T01:45:48.321Z,35.10
2019-05-21T01:48:26.528Z,35.00
2019-05-21T01:51:01.292Z,35.10
2019-05-21T01:53:39.395Z,35.20
2019-05-21T01:56:07.636Z,35.20
2019-05-21T01:58:41.280Z,35.40
2019-05-21T02:01:12.251Z,35.60
2019-05-21T02:03:48.853Z,35.70
2019-05-21T02:07:17.914Z,35.80
2019-05-21T02:08:52.771Z,35.90
2019-05-21T02:11:26.628Z,35.90
2019-05-21T02:13:59.379Z,35.90
2019-05-21T02:16:30.000Z,36.00
2019-05-21T02:19:09.665Z,35.90
2019-05-21T02:22:01.664Z,35.90
2019-05-21T02:24:52.452Z,36.00
2019-05-21T02:27:11.304Z,36.10
2019-05-21T02:29:48.692Z,36.10
2019-05-21T02:33:11.801Z,36.20
2019-05-21T02:34:57.665Z,36.30
2019-05-21T02:37:40.989Z,36.40
2019-05-21T02:40:08.388Z,36.50
2019-05-21T02:42:42.476Z,36.50
2019-05-21T02:45:14.258Z,36.60
2019-05-21T02:47:46.500Z,36.60
2019-05-21T02:50:18.148Z,36.60
2019-05-21T02:52:54.115Z,36.60
2019-05-21T02:55:37.984Z,36.60
2019-05-21T03:01:06.785Z,36.70
2019-05-21T03:03:38.557Z,36.70
2019-05-21T03:06:14.472Z,36.80
2019-05-21T03:08:41.648Z,36.90
2019-05-21T03:11:12.455Z,36.90
2019-05-21T03:14:26.471Z,37.00
2019-05-21T03:16:29.589Z,36.90
2019-05-21T03:19:18.769Z,36.80
2019-05-21T03:21:35.997Z,36.70
2019-05-21T03:24:21.748Z,36.70
2019-05-21T03:27:10.898Z,36.60
2019-05-21T03:29:41.954Z,36.40
2019-05-21T03:32:15.536Z,36.20
2019-05-21T03:34:54.483Z,36.20
2019-05-21T03:37:25.314Z,36.10
2019-05-21T03:39:56.353Z,36.10
2019-05-21T03:42:27.103Z,36.20
2019-05-21T03:45:02.151Z,36.20
2019-05-21T03:50:27.645Z,36.30
2019-05-21T03:52:58.725Z,36.40
2019-05-21T03:55:30.715Z,36.50
2019-05-21T03:58:01.708Z,36.60
2019-05-21T04:00:32.754Z,36.80
2019-05-21T04:03:05.645Z,36.90
2019-05-21T04:08:40.621Z,37.00
2019-05-21T04:11:12.862Z,37.10
2019-05-21T04:13:45.044Z,37.10
2019-05-21T04:16:17.386Z,37.00
2019-05-21T04:18:54.885Z,37.00
2019-05-21T04:21:25.201Z,36.80
2019-05-21T04:23:58.926Z,36.60
2019-05-21T04:26:37.385Z,36.40
2019-05-21T04:29:08.879Z,36.30
2019-05-21T04:34:31.136Z,36.40
2019-05-21T04:37:12.492Z,36.40
2019-05-21T04:39:44.434Z,36.50
2019-05-21T04:42:19.520Z,36.60
2019-05-21T04:47:57.542Z,36.90
2019-05-21T04:50:28.302Z,37.00
2019-05-21T04:53:01.993Z,36.80
2019-05-21T04:55:32.813Z,36.60
2019-05-21T04:58:18.648Z,36.40
2019-05-21T05:00:50.413Z,36.10
2019-05-21T05:03:28.892Z,36.10
2019-05-21T05:06:31.969Z,36.10
2019-05-21T05:08:40.406Z,36.20
2019-05-21T05:11:10.081Z,36.40
2019-05-21T05:13:41.136Z,36.50
2019-05-21T05:16:23.643Z,36.60
2019-05-21T05:18:48.123Z,36.70
2019-05-21T05:21:21.932Z,36.70
2019-05-21T05:23:51.840Z,36.70
2019-05-21T05:26:27.235Z,36.70
2019-05-21T05:29:05.283Z,36.70
2019-05-21T05:31:31.009Z,36.60
2019-05-21T05:34:23.790Z,36.60
2019-05-21T05:36:38.386Z,36.70
2019-05-21T05:39:20.055Z,36.80
2019-05-21T05:41:52.538Z,36.80
2019-05-21T05:44:24.084Z,36.90
2019-05-21T05:47:09.115Z,37.10
2019-05-21T05:49:37.411Z,37.20
2019-05-21T05:52:15.608Z,37.30
2019-05-21T05:55:02.841Z,37.20
2019-05-21T05:57:30.769Z,37.30
2019-05-21T06:00:11.659Z,37.40
2019-05-21T06:02:52.832Z,37.50
2019-05-21T06:05:27.221Z,37.50
2019-05-21T06:08:05.940Z,37.60
2019-05-21T06:10:43.476Z,37.40
2019-05-21T06:13:17.279Z,37.30
2019-05-21T06:15:57.982Z,37.30
2019-05-21T06:18:30.639Z,37.40
2019-05-21T06:21:01.568Z,37.60
2019-05-21T06:23:36.715Z,37.50
2019-05-21T06:26:07.708Z,37.50
2019-05-21T06:28:38.456Z,37.40
2019-05-21T06:31:15.967Z,37.30
2019-05-21T06:33:47.706Z,37.30
2019-05-21T06:36:21.752Z,37.50
2019-05-21T06:38:55.341Z,37.70
2019-05-21T06:41:26.306Z,37.70
2019-05-21T06:43:58.637Z,37.60
2019-05-21T06:46:29.640Z,37.50
2019-05-21T06:49:01.832Z,37.40
2019-05-21T06:51:37.189Z,37.30
2019-05-21T06:54:06.172Z,37.30
2019-05-21T06:56:50.029Z,37.20
2019-05-21T06:59:30.590Z,37.20
2019-05-21T07:02:07.080Z,37.20
2019-05-21T07:04:39.679Z,37.10
2019-05-21T07:07:10.960Z,37.10
2019-05-21T07:09:45.293Z,37.20
2019-05-21T07:12:16.220Z,37.30
2019-05-21T07:17:41.158Z,37.60
2019-05-21T07:20:12.658Z,37.60
2019-05-21T07:22:43.654Z,37.70
2019-05-21T07:25:24.697Z,37.70
2019-05-21T07:27:55.534Z,37.80
2019-05-21T07:30:26.509Z,37.80
2019-05-21T07:32:57.356Z,37.80
2019-05-21T07:35:28.355Z,37.60
2019-05-21T07:37:59.286Z,37.40
2019-05-21T07:40:32.147Z,37.30
2019-05-21T07:43:10.445Z,37.20
2019-05-21T07:45:35.428Z,37.10
2019-05-21T07:48:08.461Z,37.10
2019-05-21T07:50:47.483Z,37.00
2019-05-21T07:53:12.546Z,37.00
2019-05-21T07:55:43.824Z,37.00
2019-05-21T07:58:17.475Z,37.10
2019-05-21T08:00:48.769Z,37.10
2019-05-21T08:03:21.886Z,37.20
2019-05-21T08:05:52.339Z,37.20
2019-05-21T08:08:27.195Z,37.10
2019-05-21T08:10:59.628Z,37.00
2019-05-21T08:13:30.572Z,37.00
2019-05-21T08:16:12.915Z,37.00
2019-05-21T08:18:43.119Z,37.10
2019-05-21T08:21:22.213Z,37.10
2019-05-21T08:23:59.099Z,37.10
2019-05-21T08:26:35.348Z,37.10
2019-05-21T08:29:06.401Z,37.10
2019-05-21T08:31:42.983Z,37.00
2019-05-21T08:34:11.767Z,36.90
2019-05-21T08:36:42.728Z,36.90
2019-05-21T08:39:27.618Z,36.90
2019-05-21T08:41:47.967Z,36.80
2019-05-21T08:44:20.025Z,36.90
2019-05-21T08:46:51.032Z,36.80
2019-05-21T08:49:21.993Z,36.80
2019-05-21T08:51:56.214Z,36.70
2019-05-21T08:54:46.302Z,36.50
2019-05-21T08:57:17.028Z,36.40
2019-05-21T08:59:47.921Z,36.30
2019-05-21T09:02:19.142Z,36.20
2019-05-21T09:04:50.313Z,36.20
2019-05-21T09:07:21.603Z,36.10
2019-05-21T09:09:54.244Z,36.10
2019-05-21T09:12:25.651Z,36.10
2019-05-21T09:14:56.470Z,36.10
2019-05-21T09:17:27.507Z,36.10
2019-05-21T09:19:58.236Z,36.10
2019-05-21T09:22:31.759Z,36.00
2019-05-21T09:25:04.765Z,36.00
2019-05-21T09:27:34.936Z,36.00
2019-05-21T09:30:08.355Z,36.00
2019-05-21T09:32:39.069Z,36.00
2019-05-21T09:35:13.016Z,36.00
2019-05-21T09:37:55.581Z,35.90
2019-05-21T09:40:28.602Z,35.90
2019-05-21T09:43:05.098Z,35.90
2019-05-21T09:45:36.816Z,35.70
2019-05-21T09:48:13.755Z,35.30
2019-05-21T09:50:45.450Z,34.60
2019-05-21T09:53:23.871Z,33.80
2019-05-21T09:55:57.483Z,33.20
2019-05-21T09:58:32.687Z,32.60
2019-05-21T10:04:20.367Z,31.70
2019-05-21T10:07:01.173Z,31.40
2019-05-21T10:09:32.048Z,31.10
2019-05-21T10:12:05.262Z,30.80
2019-05-21T10:14:36.696Z,30.60
2019-05-21T10:17:12.072Z,30.30
2019-05-21T10:19:58.515Z,30.10
2019-05-21T10:22:28.759Z,30.00
2019-05-21T10:25:17.236Z,29.80
2019-05-21T10:30:52.059Z,29.60
2019-05-21T10:33:24.130Z,29.60
2019-05-21T10:36:06.830Z,29.50
2019-05-21T10:38:39.002Z,29.50
2019-05-21T10:41:21.016Z,29.40
2019-05-21T10:43:57.988Z,29.20
2019-05-21T10:46:31.398Z,29.10
2019-05-21T10:49:02.243Z,28.90
2019-05-21T10:54:15.061Z,28.80
2019-05-21T10:56:49.832Z,28.80
2019-05-21T10:59:14.492Z,28.80
2019-05-21T11:05:15.921Z,28.90
2019-05-21T11:07:53.418Z,28.90
2019-05-21T11:10:29.971Z,28.90
2019-05-21T11:13:07.285Z,28.90
2019-05-21T11:15:39.947Z,28.90
2019-05-21T11:18:12.368Z,28.90
2019-05-21T11:20:43.506Z,28.90
2019-05-21T11:23:23.033Z,28.80
2019-05-21T11:25:52.279Z,28.80
2019-05-21T11:28:23.994Z,28.70
2019-05-21T11:30:57.751Z,28.70
2019-05-21T11:36:45.059Z,28.60
2019-05-21T11:41:53.863Z,28.30
2019-05-21T11:44:25.934Z,28.20
2019-05-21T11:47:03.976Z,28.00
2019-05-21T11:49:35.064Z,27.90
2019-05-21T11:52:15.027Z,27.70
2019-05-21T11:54:49.882Z,27.60
2019-05-21T11:57:20.695Z,27.50
2019-05-21T11:59:55.741Z,27.40
2019-05-21T12:02:28.484Z,27.30
2019-05-21T12:04:58.873Z,27.20
2019-05-21T12:07:37.594Z,27.10
2019-05-21T12:10:12.980Z,27.00
2019-05-21T12:12:56.033Z,26.90
2019-05-21T12:15:39.484Z,26.80
2019-05-21T12:18:05.808Z,26.70
2019-05-21T12:20:47.142Z,26.70
2019-05-21T12:23:28.430Z,26.70
2019-05-21T12:25:58.833Z,26.60
2019-05-21T12:28:29.118Z,26.60
2019-05-21T12:31:05.694Z,26.60
2019-05-21T12:33:39.691Z,26.60
2019-05-21T12:36:16.994Z,26.60
2019-05-21T12:38:49.279Z,26.60
2019-05-21T12:41:21.804Z,26.60
2019-05-21T12:43:54.192Z,26.60
2019-05-21T12:46:26.375Z,26.60
2019-05-21T12:48:57.419Z,26.60
2019-05-21T12:51:28.331Z,26.60
2019-05-21T12:53:59.078Z,26.70
2019-05-21T12:56:30.938Z,26.70
2019-05-21T12:59:02.903Z,26.70
2019-05-21T13:01:34.116Z,26.70
2019-05-21T13:04:27.831Z,26.70
2019-05-21T13:07:00.481Z,26.70
2019-05-21T13:09:33.319Z,26.70
2019-05-21T13:12:04.211Z,26.70
2019-05-21T13:14:35.183Z,26.70
2019-05-21T13:17:11.677Z,26.70
2019-05-21T13:20:23.862Z,26.70
2019-05-21T13:22:21.384Z,26.70
2019-05-21T13:24:52.760Z,26.80
2019-05-21T13:27:23.574Z,26.80
2019-05-21T13:29:54.484Z,26.80
2019-05-21T13:32:25.743Z,26.90
2019-05-21T13:34:56.582Z,27.00
2019-05-21T13:37:27.728Z,27.00
2019-05-21T13:39:58.897Z,27.00
2019-05-21T13:42:29.939Z,27.00
2019-05-21T13:45:02.092Z,27.10
2019-05-21T13:47:34.326Z,27.10
2019-05-21T13:50:06.626Z,27.10
2019-05-21T13:52:36.319Z,27.10
2019-05-21T13:55:12.824Z,27.10
2019-05-21T13:57:42.811Z,27.10
2019-05-21T14:00:15.203Z,27.00
2019-05-21T14:02:44.993Z,27.00
2019-05-21T14:05:16.080Z,27.10
2019-05-21T14:07:47.079Z,27.10
2019-05-21T14:10:20.519Z,27.10
2019-05-21T14:12:50.060Z,27.10
2019-05-21T14:15:21.214Z,27.00
2019-05-21T14:17:55.123Z,26.90
2019-05-21T14:20:26.387Z,26.90
2019-05-21T14:22:57.129Z,26.90
2019-05-21T14:25:29.780Z,26.90
2019-05-21T14:28:00.519Z,26.90
2019-05-21T14:30:32.890Z,26.90
2019-05-21T14:33:03.976Z,27.00
2019-05-21T14:35:34.778Z,27.00
